sensor_id;sensor_type;location;lat;lon;timestamp;pressure;altitude;pressure_sealevel;temperature;humidity
74915;BME280;63475;45.140;-75.616;2023-07-16T00:01:06;100148.34;;;24.95;65.61
74915;BME280;63475;45.140;-75.616;2023-07-16T00:03:09;100153.19;;;24.93;66.33
74915;BME280;63475;45.140;-75.616;2023-07-16T00:05:12;100156.97;;;24.92;66.32
74915;BME280;63475;45.140;-75.616;2023-07-16T00:07:15;100156.56;;;24.88;66.20
74915;BME280;63475;45.140;-75.616;2023-07-16T00:09:19;100158.66;;;24.86;66.71
74915;BME280;63475;45.140;-75.616;2023-07-16T00:11:21;100149.84;;;24.84;66.74
74915;BME280;63475;45.140;-75.616;2023-07-16T00:13:24;100157.41;;;24.82;66.87
74915;BME280;63475;45.140;-75.616;2023-07-16T00:15:27;100155.06;;;24.79;66.81
74915;BME280;63475;45.140;-75.616;2023-07-16T00:17:30;100152.34;;;24.79;67.09
74915;BME280;63475;45.140;-75.616;2023-07-16T00:19:32;100154.44;;;24.77;67.00
74915;BME280;63475;45.140;-75.616;2023-07-16T00:21:35;100164.72;;;24.75;67.05
74915;BME280;63475;45.140;-75.616;2023-07-16T00:23:38;100164.94;;;24.73;67.00
74915;BME280;63475;45.140;-75.616;2023-07-16T00:25:40;100163.25;;;24.72;67.04
74915;BME280;63475;45.140;-75.616;2023-07-16T00:27:43;100162.66;;;24.70;67.01
74915;BME280;63475;45.140;-75.616;2023-07-16T00:29:45;100168.31;;;24.69;67.01
74915;BME280;63475;45.140;-75.616;2023-07-16T00:31:48;100170.41;;;24.67;67.24
74915;BME280;63475;45.140;-75.616;2023-07-16T00:33:51;100174.41;;;24.64;66.91
74915;BME280;63475;45.140;-75.616;2023-07-16T00:35:53;100169.16;;;24.63;66.93
74915;BME280;63475;45.140;-75.616;2023-07-16T00:37:56;100172.28;;;24.60;67.27
74915;BME280;63475;45.140;-75.616;2023-07-16T00:39:58;100173.34;;;24.59;68.03
74915;BME280;63475;45.140;-75.616;2023-07-16T00:42:01;100164.94;;;24.54;67.42
74915;BME280;63475;45.140;-75.616;2023-07-16T00:44:03;100164.94;;;24.54;67.21
74915;BME280;63475;45.140;-75.616;2023-07-16T00:46:07;100159.06;;;24.50;67.28
74915;BME280;63475;45.140;-75.616;2023-07-16T00:48:10;100164.72;;;24.49;67.53
74915;BME280;63475;45.140;-75.616;2023-07-16T00:50:14;100167.69;;;24.47;68.34
74915;BME280;63475;45.140;-75.616;2023-07-16T00:52:18;100167.91;;;24.46;67.76
74915;BME280;63475;45.140;-75.616;2023-07-16T00:54:22;100164.56;;;24.44;67.89
74915;BME280;63475;45.140;-75.616;2023-07-16T00:56:25;100163.91;;;24.42;67.58
74915;BME280;63475;45.140;-75.616;2023-07-16T00:58:27;100157.84;;;24.39;67.23
74915;BME280;63475;45.140;-75.616;2023-07-16T01:00:30;100159.94;;;24.37;67.25
74915;BME280;63475;45.140;-75.616;2023-07-16T01:02:32;100153.00;;;24.35;67.09
74915;BME280;63475;45.140;-75.616;2023-07-16T01:04:35;100152.38;;;24.33;66.69
74915;BME280;63475;45.140;-75.616;2023-07-16T01:06:40;100149.84;;;24.31;66.38
74915;BME280;63475;45.140;-75.616;2023-07-16T01:09:03;100147.34;;;24.30;66.79
74915;BME280;63475;45.140;-75.616;2023-07-16T01:11:09;100146.69;;;24.28;66.40
74915;BME280;63475;45.140;-75.616;2023-07-16T01:13:12;100144.41;;;24.25;66.55
74915;BME280;63475;45.140;-75.616;2023-07-16T01:15:15;100155.53;;;24.23;66.75
74915;BME280;63475;45.140;-75.616;2023-07-16T01:17:18;100148.81;;;24.19;66.87
74915;BME280;63475;45.140;-75.616;2023-07-16T01:19:20;100155.31;;;24.18;67.15
74915;BME280;63475;45.140;-75.616;2023-07-16T01:21:23;100151.94;;;24.16;67.15
74915;BME280;63475;45.140;-75.616;2023-07-16T01:26:19;100152.75;;;24.10;67.87
74915;BME280;63475;45.140;-75.616;2023-07-16T01:30:51;100143.50;;;24.04;67.86
74915;BME280;63475;45.140;-75.616;2023-07-16T01:32:55;100153.16;;;24.00;67.84
74915;BME280;63475;45.140;-75.616;2023-07-16T01:34:59;100148.13;;;23.97;68.19
74915;BME280;63475;45.140;-75.616;2023-07-16T01:37:03;100152.72;;;23.97;68.33
74915;BME280;63475;45.140;-75.616;2023-07-16T01:39:06;100154.19;;;23.93;68.43
74915;BME280;63475;45.140;-75.616;2023-07-16T01:41:08;100143.50;;;23.91;68.59
74915;BME280;63475;45.140;-75.616;2023-07-16T01:43:11;100143.91;;;23.88;68.64
74915;BME280;63475;45.140;-75.616;2023-07-16T01:45:13;100134.25;;;23.86;68.44
74915;BME280;63475;45.140;-75.616;2023-07-16T01:49:38;100129.66;;;23.80;67.81
74915;BME280;63475;45.140;-75.616;2023-07-16T01:51:41;100139.06;;;23.77;68.02
74915;BME280;63475;45.140;-75.616;2023-07-16T01:53:44;100144.72;;;23.76;68.13
74915;BME280;63475;45.140;-75.616;2023-07-16T01:55:46;100141.56;;;23.72;69.20
74915;BME280;63475;45.140;-75.616;2023-07-16T01:57:49;100145.53;;;23.69;69.52
74915;BME280;63475;45.140;-75.616;2023-07-16T01:59:51;100155.78;;;23.67;69.02
74915;BME280;63475;45.140;-75.616;2023-07-16T02:01:54;100153.47;;;23.64;69.03
74915;BME280;63475;45.140;-75.616;2023-07-16T02:03:57;100152.84;;;23.62;68.82
74915;BME280;63475;45.140;-75.616;2023-07-16T02:05:59;100150.53;;;23.59;68.93
74915;BME280;63475;45.140;-75.616;2023-07-16T02:08:02;100149.91;;;23.57;69.08
74915;BME280;63475;45.140;-75.616;2023-07-16T02:10:05;100145.72;;;23.55;69.22
74915;BME280;63475;45.140;-75.616;2023-07-16T02:12:07;100137.94;;;23.52;68.95
74915;BME280;63475;45.140;-75.616;2023-07-16T02:14:10;100131.22;;;23.48;68.85
74915;BME280;63475;45.140;-75.616;2023-07-16T02:16:13;100126.81;;;23.47;68.74
74915;BME280;63475;45.140;-75.616;2023-07-16T02:18:16;100120.75;;;23.45;68.68
74915;BME280;63475;45.140;-75.616;2023-07-16T02:20:18;100119.44;;;23.41;68.74
74915;BME280;63475;45.140;-75.616;2023-07-16T02:22:21;100120.69;;;23.38;68.71
74915;BME280;63475;45.140;-75.616;2023-07-16T02:24:23;100105.59;;;23.35;68.96
74915;BME280;63475;45.140;-75.616;2023-07-16T02:26:26;100106.88;;;23.33;68.99
74915;BME280;63475;45.140;-75.616;2023-07-16T02:28:28;100104.34;;;23.31;69.25
74915;BME280;63475;45.140;-75.616;2023-07-16T02:30:31;100111.03;;;23.29;69.55
74915;BME280;63475;45.140;-75.616;2023-07-16T02:32:34;100107.69;;;23.27;69.73
74915;BME280;63475;45.140;-75.616;2023-07-16T02:34:36;100114.34;;;23.24;70.08
74915;BME280;63475;45.140;-75.616;2023-07-16T02:36:39;100110.34;;;23.20;70.52
74915;BME280;63475;45.140;-75.616;2023-07-16T02:38:41;100114.75;;;23.21;70.50
74915;BME280;63475;45.140;-75.616;2023-07-16T02:40:45;100112.63;;;23.17;70.09
74915;BME280;63475;45.140;-75.616;2023-07-16T02:42:48;100115.38;;;23.17;70.46
74915;BME280;63475;45.140;-75.616;2023-07-16T02:44:50;100113.28;;;23.12;70.39
74915;BME280;63475;45.140;-75.616;2023-07-16T02:46:53;100113.47;;;23.11;70.48
74915;BME280;63475;45.140;-75.616;2023-07-16T02:48:55;100108.44;;;23.08;70.69
74915;BME280;63475;45.140;-75.616;2023-07-16T02:50:58;100112.38;;;23.05;71.13
74915;BME280;63475;45.140;-75.616;2023-07-16T02:53:01;100108.00;;;23.04;70.78
74915;BME280;63475;45.140;-75.616;2023-07-16T02:55:04;100107.56;;;23.00;70.65
74915;BME280;63475;45.140;-75.616;2023-07-16T02:57:06;100105.22;;;22.97;70.56
74915;BME280;63475;45.140;-75.616;2023-07-16T02:59:09;100100.19;;;22.94;71.09
74915;BME280;63475;45.140;-75.616;2023-07-16T03:01:12;100103.31;;;22.91;71.05
74915;BME280;63475;45.140;-75.616;2023-07-16T03:03:14;100103.53;;;22.90;71.17
74915;BME280;63475;45.140;-75.616;2023-07-16T03:05:17;100098.28;;;22.88;71.15
74915;BME280;63475;45.140;-75.616;2023-07-16T03:07:20;100092.41;;;22.85;71.06
74915;BME280;63475;45.140;-75.616;2023-07-16T03:09:22;100089.06;;;22.83;71.28
74915;BME280;63475;45.140;-75.616;2023-07-16T03:11:25;100077.53;;;22.81;71.03
74915;BME280;63475;45.140;-75.616;2023-07-16T03:13:27;100085.06;;;22.79;70.76
74915;BME280;63475;45.140;-75.616;2023-07-16T03:15:30;100076.44;;;22.75;71.16
74915;BME280;63475;45.140;-75.616;2023-07-16T03:17:32;100082.94;;;22.74;71.16
74915;BME280;63475;45.140;-75.616;2023-07-16T03:19:35;100078.88;;;22.70;71.11
74915;BME280;63475;45.140;-75.616;2023-07-16T03:21:38;100075.53;;;22.68;71.29
74915;BME280;63475;45.140;-75.616;2023-07-16T03:23:40;100078.47;;;22.66;71.03
74915;BME280;63475;45.140;-75.616;2023-07-16T03:25:42;100067.78;;;22.65;71.32
74915;BME280;63475;45.140;-75.616;2023-07-16T03:27:45;100071.56;;;22.64;71.33
74915;BME280;63475;45.140;-75.616;2023-07-16T03:29:48;100072.78;;;22.61;71.24
74915;BME280;63475;45.140;-75.616;2023-07-16T03:31:51;100077.59;;;22.59;71.63
74915;BME280;63475;45.140;-75.616;2023-07-16T03:33:53;100076.75;;;22.59;71.22
74915;BME280;63475;45.140;-75.616;2023-07-16T03:35:56;100081.53;;;22.57;71.18
74915;BME280;63475;45.140;-75.616;2023-07-16T03:37:58;100079.03;;;22.55;71.23
74915;BME280;63475;45.140;-75.616;2023-07-16T03:40:12;100068.34;;;22.54;71.35
74915;BME280;63475;45.140;-75.616;2023-07-16T03:42:16;100070.81;;;22.49;71.33
74915;BME280;63475;45.140;-75.616;2023-07-16T03:44:18;100066.03;;;22.51;71.44
74915;BME280;63475;45.140;-75.616;2023-07-16T03:46:21;100075.22;;;22.50;71.39
74915;BME280;63475;45.140;-75.616;2023-07-16T03:48:23;100080.00;;;22.48;71.30
74915;BME280;63475;45.140;-75.616;2023-07-16T03:50:26;100082.91;;;22.46;70.79
74915;BME280;63475;45.140;-75.616;2023-07-16T03:52:28;100091.06;;;22.46;71.62
74915;BME280;63475;45.140;-75.616;2023-07-16T03:54:31;100095.06;;;22.44;71.87
74915;BME280;63475;45.140;-75.616;2023-07-16T03:56:33;100099.66;;;22.43;71.68
74915;BME280;63475;45.140;-75.616;2023-07-16T03:58:36;100102.56;;;22.42;71.31
74915;BME280;63475;45.140;-75.616;2023-07-16T04:00:41;100100.88;;;22.41;71.29
74915;BME280;63475;45.140;-75.616;2023-07-16T04:02:43;100093.75;;;22.40;71.42
74915;BME280;63475;45.140;-75.616;2023-07-16T04:04:46;100087.69;;;22.38;71.77
74915;BME280;63475;45.140;-75.616;2023-07-16T04:06:48;100083.69;;;22.33;71.97
74915;BME280;63475;45.140;-75.616;2023-07-16T04:08:51;100080.97;;;22.33;72.03
74915;BME280;63475;45.140;-75.616;2023-07-16T04:10:53;100085.75;;;22.31;72.28
74915;BME280;63475;45.140;-75.616;2023-07-16T04:12:57;100074.25;;;22.29;72.24
74915;BME280;63475;45.140;-75.616;2023-07-16T04:15:00;100086.13;;;22.28;72.36
74915;BME280;63475;45.140;-75.616;2023-07-16T04:17:03;100077.34;;;22.26;72.13
74915;BME280;63475;45.140;-75.616;2023-07-16T04:19:06;100075.66;;;22.25;72.26
74915;BME280;63475;45.140;-75.616;2023-07-16T04:21:10;100070.63;;;22.22;72.34
74915;BME280;63475;45.140;-75.616;2023-07-16T04:23:12;100068.97;;;22.21;72.49
74915;BME280;63475;45.140;-75.616;2023-07-16T04:25:15;100065.59;;;22.19;71.95
74915;BME280;63475;45.140;-75.616;2023-07-16T04:27:18;100062.25;;;22.17;71.82
74915;BME280;63475;45.140;-75.616;2023-07-16T04:29:21;100058.50;;;22.18;72.55
74915;BME280;63475;45.140;-75.616;2023-07-16T04:31:24;100046.13;;;22.16;72.75
74915;BME280;63475;45.140;-75.616;2023-07-16T04:33:26;100040.91;;;22.14;72.79
74915;BME280;63475;45.140;-75.616;2023-07-16T04:35:29;100036.50;;;22.13;72.54
74915;BME280;63475;45.140;-75.616;2023-07-16T04:37:32;100030.44;;;22.11;72.77
74915;BME280;63475;45.140;-75.616;2023-07-16T04:39:34;100029.59;;;22.11;72.65
74915;BME280;63475;45.140;-75.616;2023-07-16T04:41:37;100031.66;;;22.09;72.69
74915;BME280;63475;45.140;-75.616;2023-07-16T04:43:39;100021.81;;;22.08;72.58
74915;BME280;63475;45.140;-75.616;2023-07-16T04:45:44;100020.16;;;22.07;73.06
74915;BME280;63475;45.140;-75.616;2023-07-16T04:47:48;100014.06;;;22.05;73.17
74915;BME280;63475;45.140;-75.616;2023-07-16T04:49:51;100016.97;;;22.03;73.33
74915;BME280;63475;45.140;-75.616;2023-07-16T04:51:53;100018.00;;;22.02;73.82
74915;BME280;63475;45.140;-75.616;2023-07-16T04:53:56;100019.84;;;22.01;73.43
74915;BME280;63475;45.140;-75.616;2023-07-16T04:55:59;100011.91;;;22.00;73.19
74915;BME280;63475;45.140;-75.616;2023-07-16T04:58:01;100012.97;;;21.99;72.77
74915;BME280;63475;45.140;-75.616;2023-07-16T05:00:04;100003.34;;;21.96;72.59
74915;BME280;63475;45.140;-75.616;2023-07-16T05:02:08;100012.31;;;21.97;72.64
74915;BME280;63475;45.140;-75.616;2023-07-16T05:04:11;100002.50;;;21.96;73.02
74915;BME280;63475;45.140;-75.616;2023-07-16T05:06:13;100002.50;;;21.96;73.72
74915;BME280;63475;45.140;-75.616;2023-07-16T05:08:16;99991.00;;;21.94;73.47
74915;BME280;63475;45.140;-75.616;2023-07-16T05:10:19;99990.16;;;21.93;73.47
74915;BME280;63475;45.140;-75.616;2023-07-16T05:12:21;99981.38;;;21.91;73.30
74915;BME280;63475;45.140;-75.616;2023-07-16T05:14:27;99981.38;;;21.91;73.56
74915;BME280;63475;45.140;-75.616;2023-07-16T05:16:30;99987.81;;;21.90;73.56
74915;BME280;63475;45.140;-75.616;2023-07-16T05:18:32;99983.63;;;21.88;72.51
74915;BME280;63475;45.140;-75.616;2023-07-16T05:20:35;99975.47;;;21.88;72.61
74915;BME280;63475;45.140;-75.616;2023-07-16T05:22:37;99977.34;;;21.87;72.63
74915;BME280;63475;45.140;-75.616;2023-07-16T05:24:40;99975.88;;;21.85;72.63
74915;BME280;63475;45.140;-75.616;2023-07-16T05:26:43;99966.69;;;21.86;72.53
74915;BME280;63475;45.140;-75.616;2023-07-16T05:28:45;99968.75;;;21.84;72.82
74915;BME280;63475;45.140;-75.616;2023-07-16T05:31:00;99966.03;;;21.84;73.07
74915;BME280;63475;45.140;-75.616;2023-07-16T05:33:02;99955.38;;;21.82;73.69
74915;BME280;63475;45.140;-75.616;2023-07-16T05:35:05;99959.13;;;21.81;74.12
74915;BME280;63475;45.140;-75.616;2023-07-16T05:37:08;99948.47;;;21.80;74.05
74915;BME280;63475;45.140;-75.616;2023-07-16T05:39:11;99944.91;;;21.79;73.90
74915;BME280;63475;45.140;-75.616;2023-07-16T05:41:16;99930.91;;;21.76;73.85
74915;BME280;63475;45.140;-75.616;2023-07-16T05:43:19;99936.97;;;21.78;74.24
74915;BME280;63475;45.140;-75.616;2023-07-16T05:45:21;99941.31;;;21.72;74.16
74915;BME280;63475;45.140;-75.616;2023-07-16T05:47:25;99946.56;;;21.74;74.89
74915;BME280;63475;45.140;-75.616;2023-07-16T05:49:27;99952.84;;;21.74;74.12
74915;BME280;63475;45.140;-75.616;2023-07-16T05:51:30;99955.94;;;21.71;74.32
74915;BME280;63475;45.140;-75.616;2023-07-16T05:53:33;99945.28;;;21.69;74.28
74915;BME280;63475;45.140;-75.616;2023-07-16T05:55:35;99955.28;;;21.69;74.59
74915;BME280;63475;45.140;-75.616;2023-07-16T05:57:38;99940.88;;;21.68;74.41
74915;BME280;63475;45.140;-75.616;2023-07-16T05:59:40;99941.06;;;21.67;74.22
74915;BME280;63475;45.140;-75.616;2023-07-16T06:01:43;99944.63;;;21.67;75.06
74915;BME280;63475;45.140;-75.616;2023-07-16T06:03:45;99938.34;;;21.67;74.07
74915;BME280;63475;45.140;-75.616;2023-07-16T06:05:48;99938.56;;;21.65;74.51
74915;BME280;63475;45.140;-75.616;2023-07-16T06:07:50;99937.72;;;21.65;74.30
74915;BME280;63475;45.140;-75.616;2023-07-16T06:09:53;99934.16;;;21.64;74.10
74915;BME280;63475;45.140;-75.616;2023-07-16T06:11:55;99928.09;;;21.62;74.34
74915;BME280;63475;45.140;-75.616;2023-07-16T06:13:59;99929.75;;;21.63;74.77
74915;BME280;63475;45.140;-75.616;2023-07-16T06:16:01;99931.00;;;21.61;74.54
74915;BME280;63475;45.140;-75.616;2023-07-16T06:18:04;99938.09;;;21.62;74.35
74915;BME280;63475;45.140;-75.616;2023-07-16T06:20:07;99928.47;;;21.59;74.61
74915;BME280;63475;45.140;-75.616;2023-07-16T06:22:10;99935.56;;;21.60;74.68
74915;BME280;63475;45.140;-75.616;2023-07-16T06:24:13;99944.75;;;21.59;74.37
74915;BME280;63475;45.140;-75.616;2023-07-16T06:26:17;99942.03;;;21.59;74.26
74915;BME280;63475;45.140;-75.616;2023-07-16T06:28:20;99934.09;;;21.58;73.98
74915;BME280;63475;45.140;-75.616;2023-07-16T06:30:23;99934.09;;;21.58;72.83
74915;BME280;63475;45.140;-75.616;2023-07-16T06:32:26;99934.28;;;21.56;73.64
74915;BME280;63475;45.140;-75.616;2023-07-16T06:34:28;99940.56;;;21.57;72.88
74915;BME280;63475;45.140;-75.616;2023-07-16T06:36:31;99927.19;;;21.55;74.17
74915;BME280;63475;45.140;-75.616;2023-07-16T06:38:33;99911.97;;;21.54;75.01
74915;BME280;63475;45.140;-75.616;2023-07-16T06:40:35;99905.88;;;21.52;74.40
74915;BME280;63475;45.140;-75.616;2023-07-16T06:42:38;99899.81;;;21.50;74.85
74915;BME280;63475;45.140;-75.616;2023-07-16T06:44:40;99897.94;;;21.51;74.69
74915;BME280;63475;45.140;-75.616;2023-07-16T06:46:43;99900.84;;;21.49;74.25
74915;BME280;63475;45.140;-75.616;2023-07-16T06:48:45;99896.47;;;21.48;74.03
74915;BME280;63475;45.140;-75.616;2023-07-16T06:50:49;99901.03;;;21.48;73.84
74915;BME280;63475;45.140;-75.616;2023-07-16T06:52:52;99887.88;;;21.45;73.85
74915;BME280;63475;45.140;-75.616;2023-07-16T06:54:54;99880.75;;;21.44;74.48
74915;BME280;63475;45.140;-75.616;2023-07-16T06:56:57;99868.03;;;21.44;74.63
74915;BME280;63475;45.140;-75.616;2023-07-16T06:59:00;99850.06;;;21.43;74.34
74915;BME280;63475;45.140;-75.616;2023-07-16T07:01:02;99842.97;;;21.42;74.79
74915;BME280;63475;45.140;-75.616;2023-07-16T07:03:05;99834.19;;;21.40;74.96
74915;BME280;63475;45.140;-75.616;2023-07-16T07:05:08;99828.09;;;21.38;75.08
74915;BME280;63475;45.140;-75.616;2023-07-16T07:07:10;99837.94;;;21.39;75.18
74915;BME280;63475;45.140;-75.616;2023-07-16T07:09:13;99857.97;;;21.38;75.23
74915;BME280;63475;45.140;-75.616;2023-07-16T07:11:15;99868.81;;;21.38;75.71
74915;BME280;63475;45.140;-75.616;2023-07-16T07:13:18;99887.41;;;21.41;76.48
74915;BME280;63475;45.140;-75.616;2023-07-16T07:15:20;99896.19;;;21.43;76.92
74915;BME280;63475;45.140;-75.616;2023-07-16T07:19:25;99914.94;;;21.38;76.88
74915;BME280;63475;45.140;-75.616;2023-07-16T07:21:28;99922.28;;;21.23;76.12
74915;BME280;63475;45.140;-75.616;2023-07-16T07:23:30;99903.41;;;21.15;76.48
74915;BME280;63475;45.140;-75.616;2023-07-16T07:25:33;99848.16;;;20.94;76.98
74915;BME280;63475;45.140;-75.616;2023-07-16T07:27:36;99838.28;;;20.65;78.41
74915;BME280;63475;45.140;-75.616;2023-07-16T07:29:38;99871.56;;;20.45;79.13
74915;BME280;63475;45.140;-75.616;2023-07-16T07:31:41;99926.25;;;20.33;80.22
74915;BME280;63475;45.140;-75.616;2023-07-16T07:33:43;99944.94;;;20.28;80.47
74915;BME280;63475;45.140;-75.616;2023-07-16T07:35:46;99948.84;;;20.26;81.05
74915;BME280;63475;45.140;-75.616;2023-07-16T07:37:48;99929.63;;;20.06;81.26
74915;BME280;63475;45.140;-75.616;2023-07-16T07:39:52;99907.50;;;19.88;81.54
74915;BME280;63475;45.140;-75.616;2023-07-16T07:41:54;99903.75;;;19.74;82.57
74915;BME280;63475;45.140;-75.616;2023-07-16T07:43:57;99912.13;;;19.64;83.50
74915;BME280;63475;45.140;-75.616;2023-07-16T07:45:59;99911.88;;;19.51;84.29
74915;BME280;63475;45.140;-75.616;2023-07-16T07:48:02;99906.94;;;19.40;84.75
74915;BME280;63475;45.140;-75.616;2023-07-16T07:50:05;99915.75;;;19.34;85.28
74915;BME280;63475;45.140;-75.616;2023-07-16T07:52:08;99950.34;;;19.24;85.51
74915;BME280;63475;45.140;-75.616;2023-07-16T07:54:10;99968.97;;;19.19;85.62
74915;BME280;63475;45.140;-75.616;2023-07-16T07:56:13;99964.28;;;19.13;85.60
74915;BME280;63475;45.140;-75.616;2023-07-16T07:58:16;99952.50;;;19.06;85.73
74915;BME280;63475;45.140;-75.616;2023-07-16T08:00:18;99933.81;;;18.96;86.09
74915;BME280;63475;45.140;-75.616;2023-07-16T08:02:21;99945.16;;;18.91;86.34
74915;BME280;63475;45.140;-75.616;2023-07-16T08:04:26;99935.72;;;18.87;86.56
74915;BME280;63475;45.140;-75.616;2023-07-16T08:06:28;99932.50;;;18.84;86.98
74915;BME280;63475;45.140;-75.616;2023-07-16T08:08:31;99937.44;;;18.80;87.38
74915;BME280;63475;45.140;-75.616;2023-07-16T08:10:33;99937.78;;;18.77;87.51
74915;BME280;63475;45.140;-75.616;2023-07-16T08:12:36;99942.53;;;18.75;87.90
74915;BME280;63475;45.140;-75.616;2023-07-16T08:14:40;99954.19;;;18.76;88.01
74915;BME280;63475;45.140;-75.616;2023-07-16T08:16:43;99969.72;;;18.74;88.28
74915;BME280;63475;45.140;-75.616;2023-07-16T08:18:46;99978.00;;;18.72;88.46
74915;BME280;63475;45.140;-75.616;2023-07-16T08:20:49;99975.28;;;18.72;88.49
74915;BME280;63475;45.140;-75.616;2023-07-16T08:22:51;99965.34;;;18.73;88.43
74915;BME280;63475;45.140;-75.616;2023-07-16T08:24:54;99962.47;;;18.74;88.59
74915;BME280;63475;45.140;-75.616;2023-07-16T08:26:56;99948.09;;;18.74;88.48
74915;BME280;63475;45.140;-75.616;2023-07-16T08:28:59;99949.97;;;18.73;88.50
74915;BME280;63475;45.140;-75.616;2023-07-16T08:31:03;99944.38;;;18.75;88.07
74915;BME280;63475;45.140;-75.616;2023-07-16T08:33:05;99946.06;;;18.76;87.87
74915;BME280;63475;45.140;-75.616;2023-07-16T08:35:08;99943.19;;;18.77;87.58
74915;BME280;63475;45.140;-75.616;2023-07-16T08:37:17;99944.38;;;18.75;87.51
74915;BME280;63475;45.140;-75.616;2023-07-16T08:39:20;99938.31;;;18.73;87.41
74915;BME280;63475;45.140;-75.616;2023-07-16T08:41:25;99946.41;;;18.73;87.43
74915;BME280;63475;45.140;-75.616;2023-07-16T08:43:33;99940.19;;;18.72;87.13
74915;BME280;63475;45.140;-75.616;2023-07-16T08:45:39;99923.13;;;18.72;87.03
74915;BME280;63475;45.140;-75.616;2023-07-16T08:47:47;99915.84;;;18.72;87.11
74915;BME280;63475;45.140;-75.616;2023-07-16T08:49:55;99925.66;;;18.73;86.84
74915;BME280;63475;45.140;-75.616;2023-07-16T08:51:59;99934.94;;;18.71;86.85
74915;BME280;63475;45.140;-75.616;2023-07-16T08:54:03;99934.09;;;18.70;86.87
74915;BME280;63475;45.140;-75.616;2023-07-16T08:56:05;99933.25;;;18.70;86.71
74915;BME280;63475;45.140;-75.616;2023-07-16T08:58:08;99932.41;;;18.69;86.61
74915;BME280;63475;45.140;-75.616;2023-07-16T09:00:11;99933.09;;;18.71;86.51
74915;BME280;63475;45.140;-75.616;2023-07-16T09:02:20;99923.31;;;18.70;86.31
74915;BME280;63475;45.140;-75.616;2023-07-16T09:04:23;99925.81;;;18.72;86.33
74915;BME280;63475;45.140;-75.616;2023-07-16T09:06:27;99911.13;;;18.74;86.00
74915;BME280;63475;45.140;-75.616;2023-07-16T09:08:29;99910.09;;;18.75;86.22
74915;BME280;63475;45.140;-75.616;2023-07-16T09:10:32;99916.16;;;18.77;85.76
74915;BME280;63475;45.140;-75.616;2023-07-16T09:12:34;99912.44;;;18.78;85.73
74915;BME280;63475;45.140;-75.616;2023-07-16T09:14:37;99908.56;;;18.81;86.06
74915;BME280;63475;45.140;-75.616;2023-07-16T09:16:39;99907.88;;;18.79;85.94
74915;BME280;63475;45.140;-75.616;2023-07-16T09:18:42;99922.53;;;18.84;85.67
74915;BME280;63475;45.140;-75.616;2023-07-16T09:20:45;99917.78;;;18.86;85.98
74915;BME280;63475;45.140;-75.616;2023-07-16T09:22:48;99917.13;;;18.84;86.67
74915;BME280;63475;45.140;-75.616;2023-07-16T09:24:50;99935.53;;;18.89;86.18
74915;BME280;63475;45.140;-75.616;2023-07-16T09:26:54;99943.47;;;18.90;86.01
74915;BME280;63475;45.140;-75.616;2023-07-16T09:29:00;99952.25;;;18.92;85.89
74915;BME280;63475;45.140;-75.616;2023-07-16T09:31:08;99964.75;;;18.93;86.08
74915;BME280;63475;45.140;-75.616;2023-07-16T09:33:14;99987.38;;;18.92;86.34
74915;BME280;63475;45.140;-75.616;2023-07-16T09:35:17;100021.66;;;18.92;86.38
74915;BME280;63475;45.140;-75.616;2023-07-16T09:37:19;100017.94;;;18.93;86.31
74915;BME280;63475;45.140;-75.616;2023-07-16T09:39:22;99992.59;;;18.94;86.14
74915;BME280;63475;45.140;-75.616;2023-07-16T09:41:25;99980.59;;;18.96;86.38
74915;BME280;63475;45.140;-75.616;2023-07-16T09:43:27;99989.38;;;18.98;86.42
74915;BME280;63475;45.140;-75.616;2023-07-16T09:45:30;99982.28;;;18.97;86.49
74915;BME280;63475;45.140;-75.616;2023-07-16T09:47:35;99978.56;;;18.98;86.57
74915;BME280;63475;45.140;-75.616;2023-07-16T09:49:37;99980.25;;;19.00;85.79
74915;BME280;63475;45.140;-75.616;2023-07-16T09:51:43;99968.59;;;18.99;85.43
74915;BME280;63475;45.140;-75.616;2023-07-16T09:53:46;99958.63;;;19.00;85.58
74915;BME280;63475;45.140;-75.616;2023-07-16T09:55:49;99963.00;;;19.01;85.28
74915;BME280;63475;45.140;-75.616;2023-07-16T09:57:57;99970.94;;;19.02;85.64
74915;BME280;63475;45.140;-75.616;2023-07-16T10:00:09;99983.28;;;19.05;85.53
74915;BME280;63475;45.140;-75.616;2023-07-16T10:02:14;99994.91;;;19.05;85.68
74915;BME280;63475;45.140;-75.616;2023-07-16T10:04:19;100000.78;;;19.09;85.91
74915;BME280;63475;45.140;-75.616;2023-07-16T10:06:23;99977.97;;;19.11;86.01
74915;BME280;63475;45.140;-75.616;2023-07-16T10:11:41;99950.44;;;19.08;85.88
74915;BME280;63475;45.140;-75.616;2023-07-16T10:13:50;99936.09;;;19.07;86.00
74915;BME280;63475;45.140;-75.616;2023-07-16T10:15:58;99922.78;;;19.06;85.91
74915;BME280;63475;45.140;-75.616;2023-07-16T10:18:01;99909.63;;;19.03;85.88
74915;BME280;63475;45.140;-75.616;2023-07-16T10:20:10;99906.56;;;19.06;85.96
74915;BME280;63475;45.140;-75.616;2023-07-16T10:22:12;99902.34;;;19.03;85.88
74915;BME280;63475;45.140;-75.616;2023-07-16T10:24:18;99907.75;;;19.03;85.90
74915;BME280;63475;45.140;-75.616;2023-07-16T10:26:27;99895.25;;;19.02;85.93
74915;BME280;63475;45.140;-75.616;2023-07-16T10:28:33;99900.66;;;19.02;85.51
74915;BME280;63475;45.140;-75.616;2023-07-16T10:30:36;99905.91;;;19.04;85.96
74915;BME280;63475;45.140;-75.616;2023-07-16T10:32:38;99907.56;;;19.05;86.01
74915;BME280;63475;45.140;-75.616;2023-07-16T10:34:41;99913.81;;;19.05;85.92
74915;BME280;63475;45.140;-75.616;2023-07-16T10:36:44;99910.28;;;19.05;85.89
74915;BME280;63475;45.140;-75.616;2023-07-16T10:38:47;99900.50;;;19.04;86.04
74915;BME280;63475;45.140;-75.616;2023-07-16T10:40:49;99914.00;;;19.04;85.90
74915;BME280;63475;45.140;-75.616;2023-07-16T10:42:52;99904.22;;;19.03;86.11
74915;BME280;63475;45.140;-75.616;2023-07-16T10:44:58;99912.50;;;19.01;86.01